Time;durP1;ratioP1;P1;durP2;ratioP2;P2;SDS_P1;SDS_P2;PMS_P1;PMS_P2;Temp;Humidity;BMP_temperature;BMP_pressure;BME280_temperature;BME280_humidity;BME280_pressure;Samples;Min_cycle;Max_cycle;Signal;HPM_P1;HPM_P2
2024/04/23 00:01:38;;;;;;;5.87;4.17;;;;;1.40;101760.00;;;;13841946;21;20251;-84
2024/04/23 00:06:39;;;;;;;4.57;3.70;;;;;1.30;101754.00;;;;13887519;21;20242;-83
2024/04/23 00:11:41;;;;;;;8.77;4.17;;;;;1.20;101751.00;;;;13933810;21;20290;-83
2024/04/23 00:16:42;;;;;;;6.03;3.87;;;;;1.20;101742.00;;;;13933601;21;20296;-84
2024/04/23 00:21:44;;;;;;;6.33;3.37;;;;;1.10;101741.00;;;;13933853;21;20266;-84
2024/04/23 00:26:59;;;;;;;5.33;3.70;;;;;1.00;101733.00;;;;13885688;21;20399;-83
2024/04/23 00:32:01;;;;;;;6.63;3.73;;;;;1.00;101738.00;;;;13885434;21;20246;-84
2024/04/23 00:37:03;;;;;;;5.27;3.07;;;;;0.90;101738.00;;;;13939395;21;20908;-83
2024/04/23 00:42:04;;;;;;;5.33;3.53;;;;;0.90;101741.00;;;;13894016;21;20290;-84
2024/04/23 00:47:06;;;;;;;5.40;4.13;;;;;0.80;101734.00;;;;13840470;21;20277;-83
2024/04/23 00:52:07;;;;;;;7.33;3.80;;;;;0.80;101733.00;;;;13886054;21;20419;-85
2024/04/23 00:57:09;;;;;;;6.20;4.03;;;;;0.80;101725.00;;;;13842151;21;20250;-83
2024/04/23 01:02:11;;;;;;;5.33;3.63;;;;;0.70;101716.00;;;;13885192;21;20267;-77
2024/04/23 01:07:12;;;;;;;4.47;3.40;;;;;0.70;101718.00;;;;13927875;21;20259;-76
2024/04/23 01:12:14;;;;;;;5.90;3.60;;;;;0.70;101718.00;;;;13927750;21;20363;-76
2024/04/23 01:17:19;;;;;;;5.40;3.57;;;;;0.70;101719.00;;;;13837931;21;20258;-78
2024/04/23 01:22:39;;;;;;;5.20;3.43;;;;;0.70;101719.00;;;;13927999;21;20261;-77
2024/04/23 01:27:43;;;;;;;6.63;3.43;;;;;0.60;101707.00;;;;13931355;21;20250;-76
2024/04/23 01:32:47;;;;;;;4.00;3.10;;;;;0.50;101704.00;;;;13928250;21;20254;-75
2024/04/23 01:38:09;;;;;;;4.97;3.40;;;;;0.50;101700.00;;;;13861904;21;20291;-77
2024/04/23 01:43:12;;;;;;;6.30;2.83;;;;;0.50;101703.00;;;;13837196;21;20293;-76
2024/04/23 01:48:14;;;;;;;5.70;3.30;;;;;0.40;101698.00;;;;13882980;21;20862;-76
2024/04/23 01:53:16;;;;;;;3.70;2.77;;;;;0.30;101699.00;;;;13932561;21;21038;-76
2024/04/23 01:58:17;;;;;;;5.10;3.67;;;;;0.30;101701.00;;;;13881555;21;20327;-75
2024/04/23 02:03:21;;;;;;;4.23;3.53;;;;;0.20;101686.00;;;;13881025;21;20264;-76
2024/04/23 02:08:23;;;;;;;4.30;3.00;;;;;0.10;101686.00;;;;13925872;21;20289;-76
2024/04/23 02:13:24;;;;;;;3.83;3.10;;;;;0.10;101682.00;;;;13927985;21;20675;-83
2024/04/23 02:18:26;;;;;;;3.87;3.00;;;;;0.00;101674.00;;;;13836624;21;21048;-83
2024/04/23 02:23:27;;;;;;;3.90;3.10;;;;;0.00;101676.00;;;;13925899;21;20251;-83
2024/04/23 02:28:29;;;;;;;5.43;3.37;;;;;0.00;101673.00;;;;13930595;21;20285;-83
2024/04/23 02:33:31;;;;;;;3.93;2.87;;;;;-0.10;101665.00;;;;13931057;21;20246;-83
2024/04/23 02:38:32;;;;;;;6.20;2.73;;;;;-0.10;101664.00;;;;13932207;21;20288;-83
2024/04/23 02:43:34;;;;;;;4.20;3.43;;;;;-0.20;101650.00;;;;13886141;21;20301;-83
2024/04/23 02:48:35;;;;;;;5.73;3.87;;;;;-0.20;101644.00;;;;13931320;21;20250;-82
2024/04/23 02:53:37;;;;;;;5.60;4.33;;;;;-0.20;101648.00;;;;13840413;21;20549;-83
2024/04/23 02:58:38;;;;;;;5.67;4.10;;;;;-0.20;101646.00;;;;13935121;21;20292;-84
2024/04/23 03:03:40;;;;;;;5.07;3.40;;;;;-0.20;101645.00;;;;13840446;21;20760;-84
2024/04/23 03:08:42;;;;;;;8.00;3.77;;;;;-0.20;101647.00;;;;13885153;21;20272;-83
2024/04/23 03:13:43;;;;;;;8.43;3.93;;;;;-0.30;101638.00;;;;13885227;21;20234;-83
2024/04/23 03:18:45;;;;;;;5.57;3.40;;;;;-0.30;101632.00;;;;13886000;21;20255;-83
2024/04/23 03:23:46;;;;;;;6.60;3.67;;;;;-0.40;101643.00;;;;13930156;21;20254;-78
2024/04/23 03:28:48;;;;;;;5.50;3.67;;;;;-0.40;101639.00;;;;13929608;21;20277;-77
2024/04/23 03:33:49;;;;;;;6.80;3.80;;;;;-0.40;101643.00;;;;13881534;21;20250;-79
2024/04/23 03:38:51;;;;;;;6.77;3.53;;;;;-0.40;101641.00;;;;13886033;21;20250;-79
2024/04/23 03:43:52;;;;;;;6.43;3.97;;;;;-0.50;101638.00;;;;13838909;21;20238;-79
2024/04/23 03:48:54;;;;;;;6.73;3.90;;;;;-0.60;101629.00;;;;13884108;21;20276;-77
2024/04/23 03:53:55;;;;;;;6.03;3.40;;;;;-0.60;101633.00;;;;13883991;21;20904;-78
2024/04/23 03:58:57;;;;;;;5.47;3.60;;;;;-0.60;101644.00;;;;13928127;21;20251;-78
2024/04/23 04:09:19;;;;;;;8.57;3.97;;;;;-0.70;101643.00;;;;13930173;21;20276;-78
2024/04/23 04:14:20;;;;;;;8.60;5.37;;;;;-0.60;101641.00;;;;13930495;21;20344;-79
2024/04/23 04:19:22;;;;;;;7.93;5.00;;;;;-0.70;101639.00;;;;13929385;21;20292;-78
2024/04/23 04:24:23;;;;;;;7.63;4.73;;;;;-0.60;101644.00;;;;13928183;21;20251;-78
2024/04/23 04:29:25;;;;;;;8.90;4.87;;;;;-0.60;101641.00;;;;13926977;21;20577;-78
2024/04/23 04:34:26;;;;;;;8.37;4.67;;;;;-0.50;101645.00;;;;13882327;21;20254;-80
2024/04/23 04:39:28;;;;;;;9.50;5.23;;;;;-0.50;101648.00;;;;13929546;21;20608;-80
2024/04/23 04:44:30;;;;;;;5.30;4.33;;;;;-0.40;101637.00;;;;13932746;21;20270;-80
2024/04/23 04:49:31;;;;;;;7.20;3.87;;;;;-0.30;101634.00;;;;13928470;21;20546;-79
2024/04/23 04:54:33;;;;;;;8.00;4.20;;;;;-0.40;101632.00;;;;13928931;21;20347;-80
2024/04/23 04:59:34;;;;;;;6.93;4.70;;;;;-0.30;101647.00;;;;13930016;21;20242;-79
2024/04/23 05:04:36;;;;;;;7.30;4.27;;;;;-0.20;101637.00;;;;13928759;21;20250;-79
2024/04/23 05:09:37;;;;;;;7.17;4.60;;;;;-0.20;101639.00;;;;13882471;21;20247;-79
2024/04/23 05:14:39;;;;;;;6.73;4.37;;;;;-0.10;101636.00;;;;13837707;21;20707;-80
2024/04/23 05:19:43;;;;;;;8.27;4.63;;;;;0.10;101646.00;;;;13881378;21;20281;-79
2024/04/23 05:24:44;;;;;;;6.70;4.50;;;;;0.90;101637.00;;;;13932564;21;20817;-80
2024/04/23 05:29:51;;;;;;;8.13;4.97;;;;;1.90;101649.00;;;;13926946;21;20261;-80
2024/04/23 05:34:53;;;;;;;7.73;5.23;;;;;2.40;101654.00;;;;13926492;21;20335;-80
2024/04/23 05:39:54;;;;;;;8.63;6.33;;;;;2.80;101657.00;;;;13927029;21;20331;-80
2024/04/23 05:44:56;;;;;;;10.53;5.53;;;;;3.30;101650.00;;;;13882986;21;20250;-80
2024/04/23 05:50:35;;;;;;;10.77;5.30;;;;;3.80;101657.00;;;;13927549;21;20312;-79
2024/04/23 05:55:55;;;;;;;8.57;5.63;;;;;4.30;101652.00;;;;13924721;21;20246;-79
2024/04/23 06:00:58;;;;;;;5.83;4.90;;;;;4.70;101655.00;;;;13880935;21;20249;-79
2024/04/23 06:06:00;;;;;;;6.23;5.30;;;;;5.30;101663.00;;;;13886923;21;20262;-79
2024/04/23 06:11:02;;;;;;;7.27;5.00;;;;;5.90;101669.00;;;;13902394;21;20965;-79
2024/04/23 06:16:10;;;;;;;5.50;4.60;;;;;6.40;101659.00;;;;13866270;21;20255;-79
2024/04/23 06:21:13;;;;;;;5.53;4.37;;;;;6.80;101666.00;;;;13928285;21;20279;-79
2024/04/23 06:26:15;;;;;;;6.27;4.93;;;;;6.80;101664.00;;;;13844144;21;20262;-79
2024/04/23 06:31:16;;;;;;;7.00;4.30;;;;;7.10;101667.00;;;;13853107;21;20247;-79
2024/04/23 06:36:17;;;;;;;6.40;4.43;;;;;7.60;101663.00;;;;13929503;21;20262;-79
2024/04/23 06:41:20;;;;;;;6.67;4.93;;;;;7.80;101670.00;;;;13932892;21;20663;-80
2024/04/23 06:46:21;;;;;;;6.10;4.70;;;;;8.20;101675.00;;;;13883678;21;20289;-79
2024/04/23 06:51:22;;;;;;;6.73;4.70;;;;;8.60;101662.00;;;;13897440;21;20243;-80
2024/04/23 06:56:24;;;;;;;6.23;5.13;;;;;8.90;101654.00;;;;13928727;21;20289;-82
2024/04/23 07:01:26;;;;;;;6.27;4.90;;;;;9.20;101651.00;;;;13921574;21;20251;-81
2024/04/23 07:06:28;;;;;;;6.50;5.00;;;;;9.40;101649.00;;;;13925748;21;20281;-80
2024/04/23 07:11:29;;;;;;;6.77;5.17;;;;;9.60;101657.00;;;;13926825;21;20673;-81
2024/04/23 07:16:31;;;;;;;6.53;5.60;;;;;10.00;101663.00;;;;13904237;21;20591;-80
2024/04/23 07:21:32;;;;;;;6.60;5.47;;;;;10.10;101658.00;;;;13826585;21;20292;-81
2024/04/23 07:26:34;;;;;;;7.07;4.90;;;;;9.90;101668.00;;;;13930693;21;20258;-80
2024/04/23 07:31:35;;;;;;;9.43;6.03;;;;;9.60;101651.00;;;;13886997;21;20560;-80
2024/04/23 07:36:37;;;;;;;8.80;5.87;;;;;9.60;101657.00;;;;13898056;21;20269;-81
2024/04/23 07:41:39;;;;;;;6.60;5.33;;;;;9.90;101662.00;;;;13912707;21;20262;-81
2024/04/23 07:46:42;;;;;;;7.50;5.73;;;;;10.00;101663.00;;;;13884486;21;20264;-80
2024/04/23 07:51:44;;;;;;;8.17;6.10;;;;;10.30;101658.00;;;;13877170;21;20258;-81
2024/04/23 07:56:45;;;;;;;7.40;5.50;;;;;10.50;101639.00;;;;13883285;21;20281;-80
2024/04/23 08:01:48;;;;;;;5.93;5.17;;;;;11.10;101651.00;;;;13884708;21;20277;-82
2024/04/23 08:06:49;;;;;;;6.00;5.33;;;;;11.40;101651.00;;;;13838822;21;20917;-81
2024/04/23 08:11:51;;;;;;;8.10;5.53;;;;;12.10;101642.00;;;;13928528;21;20684;-81
2024/04/23 08:16:52;;;;;;;5.30;4.60;;;;;12.70;101642.00;;;;13928211;21;20289;-81
2024/04/23 08:21:55;;;;;;;11.80;6.77;;;;;12.60;101653.00;;;;13928173;21;21056;-81
2024/04/23 08:26:56;;;;;;;6.93;5.60;;;;;13.10;101641.00;;;;13931917;21;20246;-82
2024/04/23 08:31:58;;;;;;;8.48;6.43;;;;;13.60;101643.00;;;;13880649;21;20985;-81
2024/04/23 08:37:01;;;;;;;6.97;5.82;;;;;13.70;101639.00;;;;13930777;21;20255;-82
2024/04/23 08:42:09;;;;;;;6.93;5.65;;;;;13.40;101633.00;;;;13837714;21;20246;-83
2024/04/23 08:47:11;;;;;;;9.55;5.75;;;;;13.80;101635.00;;;;13929574;21;20630;-82
2024/04/23 08:52:15;;;;;;;7.57;5.97;;;;;14.10;101623.00;;;;13929245;21;20818;-81
2024/04/23 08:57:18;;;;;;;7.13;5.95;;;;;14.40;101612.00;;;;13933723;21;20294;-83
2024/04/23 09:02:29;;;;;;;6.95;5.95;;;;;14.60;101600.00;;;;13931032;21;20287;-84
2024/04/23 09:07:33;;;;;;;6.95;5.93;;;;;15.20;101612.00;;;;13883591;21;20246;-82
2024/04/23 09:12:35;;;;;;;6.50;5.90;;;;;15.90;101613.00;;;;13926668;21;20247;-78
2024/04/23 09:17:36;;;;;;;6.35;5.18;;;;;16.00;101594.00;;;;13927775;21;20254;-79
2024/04/23 09:22:38;;;;;;;6.13;5.57;;;;;13.50;101614.00;;;;13924360;21;20247;-80
2024/04/23 09:27:39;;;;;;;5.78;5.05;;;;;14.90;101598.00;;;;13915488;21;20342;-79
2024/04/23 09:32:43;;;;;;;5.68;5.18;;;;;15.90;101591.00;;;;13916779;21;20285;-79
2024/04/23 09:37:49;;;;;;;5.53;5.03;;;;;13.70;101599.00;;;;13889041;21;20272;-80
2024/04/23 09:42:54;;;;;;;8.00;6.18;;;;;12.40;101594.00;;;;13814862;21;20246;-79
2024/04/23 09:47:56;;;;;;;7.00;5.43;;;;;12.10;101584.00;;;;13881941;21;20572;-79
2024/04/23 09:53:05;;;;;;;6.43;5.50;;;;;12.80;101583.00;;;;13880190;21;20251;-79
2024/04/23 09:58:06;;;;;;;7.87;6.13;;;;;12.30;101570.00;;;;13881056;21;20250;-79
2024/04/23 10:03:11;;;;;;;6.37;5.43;;;;;13.70;101563.00;;;;13928233;21;20307;-79
2024/04/23 10:08:41;;;;;;;6.95;5.45;;;;;16.30;101554.00;;;;13883487;21;20477;-79
2024/04/23 10:14:05;;;;;;;6.65;5.22;;;;;17.80;101548.00;;;;13877714;21;20254;-79
2024/04/23 10:19:09;;;;;;;6.60;5.30;;;;;17.70;101550.00;;;;13925057;21;20242;-79
2024/04/23 10:24:12;;;;;;;4.75;4.30;;;;;15.30;101549.00;;;;13927044;21;20247;-77
2024/04/23 10:29:15;;;;;;;6.00;5.38;;;;;14.00;101548.00;;;;13926485;21;20251;-77
2024/04/23 10:34:19;;;;;;;5.68;4.75;;;;;14.20;101524.00;;;;13924171;21;20262;-76
2024/04/23 10:39:22;;;;;;;5.82;5.00;;;;;17.00;101521.00;;;;13925843;21;20713;-77
2024/04/23 10:44:25;;;;;;;5.60;5.10;;;;;18.50;101516.00;;;;13927206;21;20281;-79
2024/04/23 10:49:27;;;;;;;5.35;4.90;;;;;19.50;101516.00;;;;13927985;21;20272;-77
2024/04/23 10:54:29;;;;;;;5.50;4.78;;;;;20.30;101511.00;;;;13931051;21;21096;-78
2024/04/23 10:59:31;;;;;;;6.15;5.55;;;;;20.80;101513.00;;;;13930050;21;20371;-76
2024/04/23 11:04:35;;;;;;;6.50;4.82;;;;;18.60;101498.00;;;;13886018;21;21153;-77
2024/04/23 11:09:45;;;;;;;6.38;4.95;;;;;17.40;101486.00;;;;13887489;21;20255;-76
2024/04/23 11:14:47;;;;;;;4.93;3.88;;;;;20.10;101479.00;;;;13929742;21;20246;-76
2024/04/23 11:19:51;;;;;;;4.00;3.55;;;;;21.80;101479.00;;;;13930188;21;20827;-77
2024/04/23 11:25:00;;;;;;;3.58;3.28;;;;;19.90;101492.00;;;;13930434;21;20841;-76
2024/04/23 11:30:03;;;;;;;4.72;3.67;;;;;18.50;101481.00;;;;13838373;21;20246;-78
2024/04/23 11:35:09;;;;;;;4.22;3.92;;;;;18.40;101470.00;;;;13928830;21;20289;-77
2024/04/23 11:40:11;;;;;;;5.45;3.90;;;;;19.80;101469.00;;;;13928571;21;20816;-76
2024/04/23 11:45:12;;;;;;;5.10;4.60;;;;;20.10;101464.00;;;;13933995;21;20285;-76
2024/04/23 11:50:14;;;;;;;5.45;4.32;;;;;18.10;101471.00;;;;13927882;21;20304;-78
2024/04/23 11:55:16;;;;;;;5.20;4.70;;;;;16.70;101459.00;;;;13930225;21;20288;-77
2024/04/23 12:00:20;;;;;;;10.73;5.20;;;;;15.50;101443.00;;;;13927063;21;20788;-77
2024/04/23 12:05:22;;;;;;;6.60;5.20;;;;;16.30;101444.00;;;;13930268;21;20259;-78
2024/04/23 12:10:31;;;;;;;7.13;5.88;;;;;14.70;101441.00;;;;13882868;21;20238;-78
2024/04/23 12:15:34;;;;;;;7.72;6.20;;;;;13.90;101447.00;;;;13883979;21;20978;-78
2024/04/23 12:20:38;;;;;;;6.25;5.65;;;;;14.70;101428.00;;;;13927830;21;20600;-78
2024/04/23 12:25:41;;;;;;;7.68;5.32;;;;;16.30;101426.00;;;;13932946;21;20246;-77
2024/04/23 12:30:42;;;;;;;7.90;5.75;;;;;15.60;101440.00;;;;13839029;21;20277;-77
2024/04/23 12:35:44;;;;;;;6.43;5.53;;;;;14.60;101421.00;;;;13881240;21;20273;-76
2024/04/23 12:40:46;;;;;;;6.22;5.13;;;;;16.60;101415.00;;;;13930467;21;20258;-78
2024/04/23 12:45:47;;;;;;;7.28;5.07;;;;;16.80;101414.00;;;;13882076;21;20247;-80
2024/04/23 12:50:49;;;;;;;5.82;5.18;;;;;17.40;101412.00;;;;13926273;21;20295;-79
2024/04/23 12:55:50;;;;;;;5.50;4.95;;;;;16.50;101422.00;;;;13920264;21;20833;-79
2024/04/23 13:00:52;;;;;;;6.82;5.57;;;;;15.20;101401.00;;;;13925646;21;20258;-80
2024/04/23 13:05:54;;;;;;;6.10;5.47;;;;;15.90;101392.00;;;;13881516;21;20281;-80
2024/04/23 13:10:56;;;;;;;5.78;5.18;;;;;17.20;101381.00;;;;13880420;21;20273;-79
2024/04/23 13:15:59;;;;;;;5.63;5.10;;;;;16.90;101387.00;;;;13880861;21;20265;-80
2024/04/23 13:21:03;;;;;;;5.63;4.80;;;;;17.30;101378.00;;;;13877411;21;20266;-79
2024/04/23 13:26:05;;;;;;;6.07;4.90;;;;;17.90;101369.00;;;;13880167;21;20246;-79
2024/04/23 13:31:07;;;;;;;5.25;4.45;;;;;18.20;101364.00;;;;13921478;21;20811;-79
2024/04/23 13:36:12;;;;;;;6.55;4.70;;;;;17.70;101364.00;;;;13879166;21;20247;-80
2024/04/23 13:41:14;;;;;;;6.65;4.07;;;;;17.70;101355.00;;;;13836594;21;20247;-78
2024/04/23 13:46:16;;;;;;;5.30;4.10;;;;;18.50;101339.00;;;;13887633;21;20939;-79
2024/04/23 13:51:18;;;;;;;6.40;4.35;;;;;18.40;101347.00;;;;13926658;21;20272;-78
2024/04/23 13:56:19;;;;;;;6.32;4.60;;;;;16.60;101343.00;;;;13927859;21;20280;-79
2024/04/23 14:01:21;;;;;;;6.70;5.10;;;;;16.50;101337.00;;;;13922457;21;20243;-78
2024/04/23 14:06:22;;;;;;;4.65;3.80;;;;;16.40;101328.00;;;;13832206;21;20243;-78
2024/04/23 14:11:24;;;;;;;4.50;3.47;;;;;15.90;101332.00;;;;13925081;21;20254;-79
2024/04/23 14:16:25;;;;;;;7.38;4.20;;;;;16.00;101315.00;;;;13922387;21;20764;-80
2024/04/23 14:21:27;;;;;;;3.88;3.58;;;;;15.60;101300.00;;;;13916916;21;20247;-78
2024/04/23 14:26:28;;;;;;;4.05;3.60;;;;;14.90;101302.00;;;;13925249;21;20258;-79
2024/04/23 14:31:30;;;;;;;3.42;2.78;;;;;14.70;101294.00;;;;13906462;21;21230;-78
2024/04/23 14:36:33;;;;;;;2.92;2.53;;;;;14.30;101294.00;;;;13925456;21;20723;-77
2024/04/23 14:41:35;;;;;;;2.40;2.20;;;;;14.00;101292.00;;;;13925111;21;20896;-78
2024/04/23 14:46:36;;;;;;;4.93;3.05;;;;;14.00;101286.00;;;;13928288;21;20657;-77
2024/04/23 14:51:38;;;;;;;3.25;2.15;;;;;14.20;101286.00;;;;13925055;21;20652;-78
2024/04/23 14:56:39;;;;;;;2.33;2.13;;;;;14.10;101279.00;;;;13929317;21;20342;-77
2024/04/23 15:01:41;;;;;;;2.38;2.13;;;;;13.30;101280.00;;;;13881117;21;20246;-80
2024/04/23 15:06:43;;;;;;;2.95;2.45;;;;;12.90;101285.00;;;;13924315;21;20254;-79
2024/04/23 15:11:45;;;;;;;5.87;2.70;;;;;12.60;101285.00;;;;13926864;21;20250;-79
2024/04/23 15:16:46;;;;;;;5.60;3.13;;;;;12.40;101280.00;;;;13927229;21;20250;-79
2024/04/23 15:21:48;;;;;;;3.00;2.53;;;;;11.80;101275.00;;;;13927760;21;20272;-79
2024/04/23 15:26:50;;;;;;;4.17;2.60;;;;;11.50;101268.00;;;;13880612;21;20310;-79
2024/04/23 15:31:52;;;;;;;3.83;2.90;;;;;11.60;101272.00;;;;13873084;21;20258;-80
2024/04/23 15:36:53;;;;;;;6.43;3.07;;;;;11.60;101266.00;;;;13926343;21;20254;-80
2024/04/23 15:41:55;;;;;;;4.83;3.07;;;;;11.70;101260.00;;;;13927125;21;20258;-79
2024/04/23 15:46:57;;;;;;;3.97;3.10;;;;;11.40;101256.00;;;;13926672;21;20342;-78
2024/04/23 15:51:58;;;;;;;4.07;3.10;;;;;11.30;101249.00;;;;13878526;21;20921;-79
2024/04/23 15:56:59;;;;;;;4.40;3.37;;;;;11.40;101249.00;;;;13926632;21;20262;-80
2024/04/23 16:02:01;;;;;;;4.70;3.13;;;;;11.60;101243.00;;;;13926993;21;20258;-80
2024/04/23 16:07:03;;;;;;;4.97;3.87;;;;;11.50;101250.00;;;;13832848;21;20250;-79
2024/04/23 16:12:05;;;;;;;8.70;4.07;;;;;11.40;101238.00;;;;13922054;21;20250;-79
2024/04/23 16:17:10;;;;;;;4.70;3.10;;;;;11.30;101230.00;;;;13922216;21;20262;-81
2024/04/23 16:22:12;;;;;;;5.87;3.97;;;;;11.50;101235.00;;;;13876681;21;20293;-83
2024/04/23 16:27:13;;;;;;;4.30;3.60;;;;;11.90;101226.00;;;;13791224;21;20335;-82
2024/04/23 16:32:15;;;;;;;4.53;3.10;;;;;11.90;101224.00;;;;13922326;21;20990;-83
2024/04/23 16:37:18;;;;;;;4.93;2.73;;;;;11.60;101226.00;;;;13859896;21;20327;-83
2024/04/23 16:42:20;;;;;;;4.47;2.80;;;;;11.10;101201.00;;;;13872879;21;20783;-82
2024/04/23 16:47:21;;;;;;;4.80;3.17;;;;;11.00;101210.00;;;;13786976;21;20266;-82
2024/04/23 16:52:23;;;;;;;5.23;3.10;;;;;11.00;101207.00;;;;13918488;21;21109;-83
2024/04/23 16:57:24;;;;;;;4.03;3.23;;;;;11.10;101202.00;;;;13853517;21;20725;-83
2024/04/23 17:02:25;;;;;;;6.47;3.73;;;;;11.40;101199.00;;;;13870311;21;20293;-83
2024/04/23 17:07:30;;;;;;;4.73;3.10;;;;;11.50;101201.00;;;;13919631;21;20251;-82
2024/04/23 17:12:32;;;;;;;4.40;3.40;;;;;11.30;101203.00;;;;13887238;21;20262;-82
2024/04/23 17:17:36;;;;;;;3.83;2.93;;;;;10.80;101199.00;;;;13898811;21;20250;-82
2024/04/23 17:22:39;;;;;;;4.63;3.50;;;;;10.40;101191.00;;;;13822006;21;20238;-82
2024/04/23 17:27:40;;;;;;;4.83;3.20;;;;;10.10;101187.00;;;;13870279;21;20262;-81
2024/04/23 17:32:42;;;;;;;5.33;3.40;;;;;10.00;101190.00;;;;13882966;21;20652;-79
2024/04/23 17:37:43;;;;;;;6.17;3.57;;;;;9.90;101188.00;;;;13804471;21;20301;-81
2024/04/23 17:42:45;;;;;;;6.90;3.43;;;;;9.90;101183.00;;;;13862805;21;20253;-81
2024/04/23 17:47:46;;;;;;;6.37;4.00;;;;;9.90;101180.00;;;;13913299;21;20830;-81
2024/04/23 17:52:48;;;;;;;7.27;4.43;;;;;9.90;101177.00;;;;13837559;21;21107;-81
2024/04/23 17:57:52;;;;;;;4.57;3.87;;;;;9.90;101169.00;;;;13905522;21;20254;-79
2024/04/23 18:02:53;;;;;;;6.47;4.10;;;;;10.00;101158.00;;;;13870891;21;20246;-80
2024/04/23 18:07:55;;;;;;;5.20;3.57;;;;;10.00;101159.00;;;;13922828;21;20300;-81
2024/04/23 18:12:56;;;;;;;5.77;3.80;;;;;9.80;101154.00;;;;13836146;21;20246;-80
2024/04/23 18:17:58;;;;;;;6.43;3.67;;;;;9.60;101154.00;;;;13921537;21;20250;-82
2024/04/23 18:23:00;;;;;;;5.27;4.07;;;;;9.50;101150.00;;;;13902916;21;20258;-83
2024/04/23 18:28:02;;;;;;;4.13;3.60;;;;;9.50;101148.00;;;;13828746;21;20371;-82
2024/04/23 18:33:04;;;;;;;5.37;4.03;;;;;9.30;101152.00;;;;13876989;21;20250;-83
2024/04/23 18:38:06;;;;;;;5.20;3.80;;;;;9.20;101157.00;;;;13842058;21;20339;-84
2024/04/23 18:43:07;;;;;;;5.87;3.87;;;;;9.10;101147.00;;;;13856606;21;20250;-82
2024/04/23 18:48:09;;;;;;;6.37;3.80;;;;;8.90;101137.00;;;;13926019;21;20251;-84
2024/04/23 18:53:10;;;;;;;4.73;3.83;;;;;8.90;101137.00;;;;13925216;21;20302;-84
2024/04/23 18:58:15;;;;;;;6.03;4.17;;;;;8.80;101145.00;;;;13922493;21;20306;-83
2024/04/23 19:03:16;;;;;;;5.97;3.90;;;;;8.70;101140.00;;;;13856067;21;20247;-84
2024/04/23 19:08:18;;;;;;;5.67;4.63;;;;;8.70;101135.00;;;;13922043;21;20296;-84
2024/04/23 19:13:20;;;;;;;7.63;4.57;;;;;8.60;101138.00;;;;13926468;21;20301;-84
2024/04/23 19:18:21;;;;;;;7.13;3.80;;;;;8.60;101131.00;;;;13841008;21;20285;-84
2024/04/23 19:23:23;;;;;;;4.80;4.00;;;;;8.60;101123.00;;;;13897642;21;20262;-84
2024/04/23 19:28:24;;;;;;;5.20;4.20;;;;;8.50;101123.00;;;;13862166;21;20553;-84
2024/04/23 19:33:26;;;;;;;6.67;4.37;;;;;8.50;101128.00;;;;13922747;21;20297;-84
2024/04/23 19:38:28;;;;;;;5.90;4.50;;;;;8.50;101115.00;;;;13878096;21;20992;-83
2024/04/23 19:43:34;;;;;;;4.87;4.23;;;;;8.50;101116.00;;;;13926167;21;20850;-84
2024/04/23 19:48:55;;;;;;;6.50;4.50;;;;;8.50;101116.00;;;;13913183;21;20249;-84
2024/04/23 19:53:58;;;;;;;6.93;4.90;;;;;8.40;101108.00;;;;13917524;21;20246;-84
2024/04/23 19:59:01;;;;;;;4.83;3.20;;;;;8.20;101116.00;;;;13887247;21;20262;-85
2024/04/23 20:04:04;;;;;;;4.27;3.30;;;;;8.10;101104.00;;;;13922493;21;20250;-85
2024/04/23 20:09:08;;;;;;;6.70;3.87;;;;;8.00;101108.00;;;;13912734;21;20298;-84
2024/04/23 20:14:10;;;;;;;8.40;3.43;;;;;8.00;101101.00;;;;13918183;21;20858;-84
2024/04/23 20:19:11;;;;;;;4.77;4.03;;;;;7.90;101089.00;;;;13926994;21;20715;-84
2024/04/23 20:24:13;;;;;;;5.63;4.07;;;;;7.90;101077.00;;;;13855248;21;20996;-83
2024/04/23 20:29:14;;;;;;;5.50;4.57;;;;;7.90;101081.00;;;;13911655;21;20289;-84
2024/04/23 20:34:16;;;;;;;6.73;4.33;;;;;7.80;101089.00;;;;13926128;21;21178;-87
2024/04/23 20:39:18;;;;;;;7.07;5.90;;;;;7.60;101078.00;;;;13866399;21;20312;-89
2024/04/23 20:44:19;;;;;;;7.20;6.00;;;;;7.40;101068.00;;;;13907395;21;20288;-87
2024/04/23 20:49:20;;;;;;;9.53;6.23;;;;;7.40;101068.00;;;;13927344;21;20276;-85
2024/04/23 20:54:22;;;;;;;9.07;6.47;;;;;7.30;101062.00;;;;13925576;21;20273;-79
2024/04/23 20:59:24;;;;;;;9.30;7.17;;;;;7.30;101065.00;;;;13928819;21;20254;-79
2024/04/23 21:04:25;;;;;;;10.77;8.30;;;;;7.30;101051.00;;;;13849048;21;20368;-79
2024/04/23 21:09:26;;;;;;;12.47;8.63;;;;;7.30;101047.00;;;;13925127;21;20254;-80
2024/04/23 21:14:28;;;;;;;11.13;9.07;;;;;7.30;101047.00;;;;13871025;21;20979;-79
2024/04/23 21:19:29;;;;;;;11.00;9.10;;;;;7.30;101051.00;;;;13923908;21;20258;-81
2024/04/23 21:24:31;;;;;;;13.27;10.37;;;;;7.20;101058.00;;;;13925299;21;20368;-80
2024/04/23 21:29:32;;;;;;;13.17;9.10;;;;;7.20;101065.00;;;;13854327;21;20238;-80
2024/04/23 21:34:34;;;;;;;5.53;3.47;;;;;6.90;101068.00;;;;13913896;21;20356;-80
2024/04/23 21:39:36;;;;;;;7.23;3.20;;;;;6.50;101060.00;;;;13879754;21;20276;-80
2024/04/23 21:44:37;;;;;;;6.53;3.27;;;;;6.30;101058.00;;;;13885879;21;20238;-80
2024/04/23 21:49:38;;;;;;;7.27;3.37;;;;;6.30;101060.00;;;;13899507;21;20254;-80
2024/04/23 21:54:44;;;;;;;7.67;3.90;;;;;6.30;101047.00;;;;13909102;21;20264;-79
2024/04/23 21:59:46;;;;;;;7.63;3.23;;;;;6.30;101045.00;;;;13926085;21;20848;-76
2024/04/23 22:04:47;;;;;;;6.73;3.50;;;;;6.30;101037.00;;;;13884765;21;20292;-83
2024/04/23 22:09:49;;;;;;;6.37;3.50;;;;;6.30;101043.00;;;;13928074;21;20262;-82
2024/04/23 22:14:50;;;;;;;11.07;4.00;;;;;6.30;101050.00;;;;13927411;21;20246;-84
2024/04/23 22:19:52;;;;;;;6.50;3.10;;;;;6.40;101042.00;;;;13874913;21;20310;-85
2024/04/23 22:24:53;;;;;;;7.70;4.03;;;;;6.40;101042.00;;;;13881025;21;20313;-85
2024/04/23 22:29:55;;;;;;;10.17;3.37;;;;;6.40;101036.00;;;;13803059;21;20258;-84
2024/04/23 22:34:56;;;;;;;10.40;3.67;;;;;6.40;101036.00;;;;13927890;21;20343;-86
2024/04/23 22:39:58;;;;;;;7.20;2.93;;;;;6.40;101027.00;;;;13873395;21;20254;-84
2024/04/23 22:44:59;;;;;;;9.50;3.10;;;;;6.40;101022.00;;;;13838906;21;20247;-86
2024/04/23 22:50:01;;;;;;;6.50;2.63;;;;;6.40;101008.00;;;;13895102;21;20246;-86
2024/04/23 22:55:03;;;;;;;11.37;3.33;;;;;6.30;101018.00;;;;13905802;21;20389;-88
2024/04/23 23:00:05;;;;;;;5.93;1.83;;;;;6.20;101002.00;;;;13872820;21;21089;-88
2024/04/23 23:05:07;;;;;;;10.77;3.27;;;;;6.00;101006.00;;;;13888212;21;20317;-87
2024/04/23 23:10:08;;;;;;;5.20;2.27;;;;;5.90;100991.00;;;;13807019;21;20254;-87
2024/04/23 23:15:10;;;;;;;9.00;2.43;;;;;5.80;100979.00;;;;13905893;21;20339;-88
2024/04/23 23:20:11;;;;;;;7.73;2.50;;;;;5.70;100979.00;;;;13870217;21;20288;-87
2024/04/23 23:25:13;;;;;;;6.80;2.53;;;;;5.60;100975.00;;;;13928574;21;20245;-79
2024/04/23 23:30:15;;;;;;;9.47;3.07;;;;;5.50;100983.00;;;;13838958;21;20715;-77
2024/04/23 23:35:16;;;;;;;11.80;2.47;;;;;5.50;100976.00;;;;13929695;21;20254;-78
2024/04/23 23:40:18;;;;;;;10.30;2.80;;;;;5.50;100976.00;;;;13865321;21;20262;-78
2024/04/23 23:45:19;;;;;;;9.23;2.83;;;;;5.50;100982.00;;;;13931977;21;20756;-78
2024/04/23 23:50:21;;;;;;;5.90;3.10;;;;;5.50;100971.00;;;;13930597;21;20806;-77
2024/04/23 23:55:23;;;;;;;6.50;4.10;;;;;5.50;100969.00;;;;13897444;21;20277;-78
